sensor_id;sensor_type;location;lat;lon;timestamp;temperature;humidity
24207;DHT22;12351;52.284;9.160;2023-07-29T00:01:41;21.80;1.00
24207;DHT22;12351;52.284;9.160;2023-07-29T00:04:27;21.70;1.00
24207;DHT22;12351;52.284;9.160;2023-07-29T00:07:14;21.70;1.00
24207;DHT22;12351;52.284;9.160;2023-07-29T00:10:01;21.60;1.00
24207;DHT22;12351;52.284;9.160;2023-07-29T00:12:49;21.60;1.00
24207;DHT22;12351;52.284;9.160;2023-07-29T00:15:35;21.60;1.00
24207;DHT22;12351;52.284;9.160;2023-07-29T00:18:22;21.60;1.00
24207;DHT22;12351;52.284;9.160;2023-07-29T00:21:09;21.60;1.00
24207;DHT22;12351;52.284;9.160;2023-07-29T00:23:56;21.60;1.00
24207;DHT22;12351;52.284;9.160;2023-07-29T00:26:43;21.50;1.00
24207;DHT22;12351;52.284;9.160;2023-07-29T00:29:33;21.50;1.00
24207;DHT22;12351;52.284;9.160;2023-07-29T00:32:20;21.50;1.00
24207;DHT22;12351;52.284;9.160;2023-07-29T00:35:07;21.50;1.00
24207;DHT22;12351;52.284;9.160;2023-07-29T00:37:55;21.40;1.00
24207;DHT22;12351;52.284;9.160;2023-07-29T00:40:42;21.40;1.00
24207;DHT22;12351;52.284;9.160;2023-07-29T00:43:29;21.50;1.00
24207;DHT22;12351;52.284;9.160;2023-07-29T00:46:16;21.50;1.00
24207;DHT22;12351;52.284;9.160;2023-07-29T00:49:03;21.50;1.00
24207;DHT22;12351;52.284;9.160;2023-07-29T00:51:51;21.20;1.00
24207;DHT22;12351;52.284;9.160;2023-07-29T00:54:39;21.20;1.00
24207;DHT22;12351;52.284;9.160;2023-07-29T00:57:25;21.20;1.00
24207;DHT22;12351;52.284;9.160;2023-07-29T01:00:14;21.10;99.90
24207;DHT22;12351;52.284;9.160;2023-07-29T01:03:01;21.10;99.90
24207;DHT22;12351;52.284;9.160;2023-07-29T01:05:55;21.00;1.00
24207;DHT22;12351;52.284;9.160;2023-07-29T01:14:21;21.00;99.90
24207;DHT22;12351;52.284;9.160;2023-07-29T01:17:08;20.90;99.90
24207;DHT22;12351;52.284;9.160;2023-07-29T01:22:45;20.90;99.90
24207;DHT22;12351;52.284;9.160;2023-07-29T01:25:32;20.90;99.90
24207;DHT22;12351;52.284;9.160;2023-07-29T01:28:19;20.80;99.90
24207;DHT22;12351;52.284;9.160;2023-07-29T01:33:48;20.70;99.90
24207;DHT22;12351;52.284;9.160;2023-07-29T01:36:37;20.60;99.90
24207;DHT22;12351;52.284;9.160;2023-07-29T01:39:27;20.60;1.00
24207;DHT22;12351;52.284;9.160;2023-07-29T01:42:17;20.60;99.90
24207;DHT22;12351;52.284;9.160;2023-07-29T01:45:05;20.60;99.90
24207;DHT22;12351;52.284;9.160;2023-07-29T01:47:53;20.60;1.00
24207;DHT22;12351;52.284;9.160;2023-07-29T01:50:40;20.50;1.00
24207;DHT22;12351;52.284;9.160;2023-07-29T01:53:27;20.50;99.90
24207;DHT22;12351;52.284;9.160;2023-07-29T01:56:13;20.40;99.90
24207;DHT22;12351;52.284;9.160;2023-07-29T01:59:00;20.50;99.90
24207;DHT22;12351;52.284;9.160;2023-07-29T02:01:48;20.40;1.00
24207;DHT22;12351;52.284;9.160;2023-07-29T02:04:35;20.40;1.00
24207;DHT22;12351;52.284;9.160;2023-07-29T02:07:22;20.40;1.00
24207;DHT22;12351;52.284;9.160;2023-07-29T02:10:10;20.40;1.00
24207;DHT22;12351;52.284;9.160;2023-07-29T02:12:57;20.30;1.00
24207;DHT22;12351;52.284;9.160;2023-07-29T02:15:43;20.30;1.00
24207;DHT22;12351;52.284;9.160;2023-07-29T02:18:30;20.30;1.00
24207;DHT22;12351;52.284;9.160;2023-07-29T02:21:17;20.30;1.00
24207;DHT22;12351;52.284;9.160;2023-07-29T02:24:04;20.30;1.00
24207;DHT22;12351;52.284;9.160;2023-07-29T02:26:50;20.20;99.90
24207;DHT22;12351;52.284;9.160;2023-07-29T02:29:37;20.20;1.00
24207;DHT22;12351;52.284;9.160;2023-07-29T02:32:24;20.20;1.00
24207;DHT22;12351;52.284;9.160;2023-07-29T02:35:12;20.20;1.00
24207;DHT22;12351;52.284;9.160;2023-07-29T02:37:59;20.20;1.00
24207;DHT22;12351;52.284;9.160;2023-07-29T02:40:46;20.10;1.00
24207;DHT22;12351;52.284;9.160;2023-07-29T02:43:33;20.20;1.00
24207;DHT22;12351;52.284;9.160;2023-07-29T02:46:19;20.10;1.00
24207;DHT22;12351;52.284;9.160;2023-07-29T02:49:06;20.10;99.90
24207;DHT22;12351;52.284;9.160;2023-07-29T02:51:53;20.10;1.00
24207;DHT22;12351;52.284;9.160;2023-07-29T02:54:39;20.10;1.00
24207;DHT22;12351;52.284;9.160;2023-07-29T02:57:26;20.10;1.00
24207;DHT22;12351;52.284;9.160;2023-07-29T03:00:13;20.10;1.00
24207;DHT22;12351;52.284;9.160;2023-07-29T03:03:00;20.00;1.00
24207;DHT22;12351;52.284;9.160;2023-07-29T03:05:47;20.00;1.00
24207;DHT22;12351;52.284;9.160;2023-07-29T03:08:34;20.00;1.00
24207;DHT22;12351;52.284;9.160;2023-07-29T03:11:22;20.00;1.00
24207;DHT22;12351;52.284;9.160;2023-07-29T03:14:08;20.00;1.00
24207;DHT22;12351;52.284;9.160;2023-07-29T03:16:55;20.00;1.00
24207;DHT22;12351;52.284;9.160;2023-07-29T03:19:42;20.00;1.00
24207;DHT22;12351;52.284;9.160;2023-07-29T03:22:28;20.00;1.00
24207;DHT22;12351;52.284;9.160;2023-07-29T03:25:15;20.00;1.00
24207;DHT22;12351;52.284;9.160;2023-07-29T03:28:02;20.00;1.00
24207;DHT22;12351;52.284;9.160;2023-07-29T03:30:48;19.90;1.00
24207;DHT22;12351;52.284;9.160;2023-07-29T03:33:35;19.90;1.00
24207;DHT22;12351;52.284;9.160;2023-07-29T03:36:22;19.90;1.00
24207;DHT22;12351;52.284;9.160;2023-07-29T03:39:10;19.80;1.00
24207;DHT22;12351;52.284;9.160;2023-07-29T03:41:57;19.70;1.00
24207;DHT22;12351;52.284;9.160;2023-07-29T03:44:44;19.70;1.00
24207;DHT22;12351;52.284;9.160;2023-07-29T03:47:31;19.70;1.00
24207;DHT22;12351;52.284;9.160;2023-07-29T03:50:18;19.80;1.00
24207;DHT22;12351;52.284;9.160;2023-07-29T03:53:05;19.80;1.00
24207;DHT22;12351;52.284;9.160;2023-07-29T03:55:52;19.70;1.00
24207;DHT22;12351;52.284;9.160;2023-07-29T03:58:39;19.70;1.00
24207;DHT22;12351;52.284;9.160;2023-07-29T04:01:25;19.70;1.00
24207;DHT22;12351;52.284;9.160;2023-07-29T04:04:12;19.70;1.00
24207;DHT22;12351;52.284;9.160;2023-07-29T04:06:59;19.70;1.00
24207;DHT22;12351;52.284;9.160;2023-07-29T04:09:47;19.70;1.00
24207;DHT22;12351;52.284;9.160;2023-07-29T04:12:34;19.70;1.00
24207;DHT22;12351;52.284;9.160;2023-07-29T04:15:21;19.70;1.00
24207;DHT22;12351;52.284;9.160;2023-07-29T04:18:08;19.70;1.00
24207;DHT22;12351;52.284;9.160;2023-07-29T04:20:55;19.70;1.00
24207;DHT22;12351;52.284;9.160;2023-07-29T04:23:42;19.70;1.00
24207;DHT22;12351;52.284;9.160;2023-07-29T04:26:29;19.60;1.00
24207;DHT22;12351;52.284;9.160;2023-07-29T04:29:16;19.60;1.00
24207;DHT22;12351;52.284;9.160;2023-07-29T04:34:51;19.60;1.00
24207;DHT22;12351;52.284;9.160;2023-07-29T04:37:38;19.60;1.00
24207;DHT22;12351;52.284;9.160;2023-07-29T04:40:25;19.60;1.00
24207;DHT22;12351;52.284;9.160;2023-07-29T04:43:11;19.60;1.00
24207;DHT22;12351;52.284;9.160;2023-07-29T04:45:58;19.60;1.00
24207;DHT22;12351;52.284;9.160;2023-07-29T04:48:45;19.50;1.00
24207;DHT22;12351;52.284;9.160;2023-07-29T04:51:32;19.50;1.00
24207;DHT22;12351;52.284;9.160;2023-07-29T04:54:19;19.50;1.00
24207;DHT22;12351;52.284;9.160;2023-07-29T04:57:07;19.50;1.00
24207;DHT22;12351;52.284;9.160;2023-07-29T04:59:53;19.50;1.00
24207;DHT22;12351;52.284;9.160;2023-07-29T05:02:40;19.50;1.00
24207;DHT22;12351;52.284;9.160;2023-07-29T05:05:27;19.50;1.00
24207;DHT22;12351;52.284;9.160;2023-07-29T05:08:14;19.50;1.00
24207;DHT22;12351;52.284;9.160;2023-07-29T05:11:01;19.60;1.00
24207;DHT22;12351;52.284;9.160;2023-07-29T05:13:48;19.60;1.00
24207;DHT22;12351;52.284;9.160;2023-07-29T05:16:35;19.60;1.00
24207;DHT22;12351;52.284;9.160;2023-07-29T05:19:22;19.60;1.00
24207;DHT22;12351;52.284;9.160;2023-07-29T05:22:10;19.60;1.00
24207;DHT22;12351;52.284;9.160;2023-07-29T05:24:58;19.70;1.00
24207;DHT22;12351;52.284;9.160;2023-07-29T05:27:44;19.70;1.00
24207;DHT22;12351;52.284;9.160;2023-07-29T05:33:22;19.70;1.00
24207;DHT22;12351;52.284;9.160;2023-07-29T05:36:09;19.70;1.00
24207;DHT22;12351;52.284;9.160;2023-07-29T05:38:56;19.70;1.00
24207;DHT22;12351;52.284;9.160;2023-07-29T05:41:43;19.70;1.00
24207;DHT22;12351;52.284;9.160;2023-07-29T05:44:31;19.70;1.00
24207;DHT22;12351;52.284;9.160;2023-07-29T05:47:18;19.70;1.00
24207;DHT22;12351;52.284;9.160;2023-07-29T05:50:05;19.70;1.00
24207;DHT22;12351;52.284;9.160;2023-07-29T05:52:52;19.70;1.00
24207;DHT22;12351;52.284;9.160;2023-07-29T05:55:39;19.70;1.00
24207;DHT22;12351;52.284;9.160;2023-07-29T05:58:26;19.60;1.00
24207;DHT22;12351;52.284;9.160;2023-07-29T06:01:12;19.70;1.00
24207;DHT22;12351;52.284;9.160;2023-07-29T06:03:59;19.70;1.00
24207;DHT22;12351;52.284;9.160;2023-07-29T06:06:46;19.70;1.00
24207;DHT22;12351;52.284;9.160;2023-07-29T06:09:33;19.80;1.00
24207;DHT22;12351;52.284;9.160;2023-07-29T06:12:20;19.80;1.00
24207;DHT22;12351;52.284;9.160;2023-07-29T06:15:07;19.80;1.00
24207;DHT22;12351;52.284;9.160;2023-07-29T06:17:54;19.80;1.00
24207;DHT22;12351;52.284;9.160;2023-07-29T06:20:41;19.90;1.00
24207;DHT22;12351;52.284;9.160;2023-07-29T06:23:28;19.90;1.00
24207;DHT22;12351;52.284;9.160;2023-07-29T06:26:15;19.90;1.00
24207;DHT22;12351;52.284;9.160;2023-07-29T06:29:02;20.00;1.00
24207;DHT22;12351;52.284;9.160;2023-07-29T06:31:49;20.00;1.00
24207;DHT22;12351;52.284;9.160;2023-07-29T06:34:36;20.00;1.00
24207;DHT22;12351;52.284;9.160;2023-07-29T06:37:23;20.00;1.00
24207;DHT22;12351;52.284;9.160;2023-07-29T06:40:11;20.00;1.00
24207;DHT22;12351;52.284;9.160;2023-07-29T06:42:58;20.00;1.00
24207;DHT22;12351;52.284;9.160;2023-07-29T06:45:45;20.10;1.00
24207;DHT22;12351;52.284;9.160;2023-07-29T06:48:32;20.10;1.00
24207;DHT22;12351;52.284;9.160;2023-07-29T06:51:18;20.00;1.00
24207;DHT22;12351;52.284;9.160;2023-07-29T06:54:05;20.00;1.00
24207;DHT22;12351;52.284;9.160;2023-07-29T06:56:52;20.10;1.00
24207;DHT22;12351;52.284;9.160;2023-07-29T06:59:38;20.10;1.00
24207;DHT22;12351;52.284;9.160;2023-07-29T07:02:25;20.10;1.00
24207;DHT22;12351;52.284;9.160;2023-07-29T07:05:12;20.10;1.00
24207;DHT22;12351;52.284;9.160;2023-07-29T07:07:59;20.10;1.00
24207;DHT22;12351;52.284;9.160;2023-07-29T07:10:47;20.10;1.00
24207;DHT22;12351;52.284;9.160;2023-07-29T07:13:34;20.10;1.00
24207;DHT22;12351;52.284;9.160;2023-07-29T07:16:20;20.20;1.00
24207;DHT22;12351;52.284;9.160;2023-07-29T07:19:07;20.40;1.00
24207;DHT22;12351;52.284;9.160;2023-07-29T07:21:54;20.40;1.00
24207;DHT22;12351;52.284;9.160;2023-07-29T07:24:41;20.30;1.00
24207;DHT22;12351;52.284;9.160;2023-07-29T07:27:28;20.30;1.00
24207;DHT22;12351;52.284;9.160;2023-07-29T07:30:14;20.40;1.00
24207;DHT22;12351;52.284;9.160;2023-07-29T07:33:01;20.50;1.00
24207;DHT22;12351;52.284;9.160;2023-07-29T07:35:48;20.50;1.00
24207;DHT22;12351;52.284;9.160;2023-07-29T07:38:35;20.60;1.00
24207;DHT22;12351;52.284;9.160;2023-07-29T07:41:22;20.50;1.00
24207;DHT22;12351;52.284;9.160;2023-07-29T07:44:09;20.50;1.00
24207;DHT22;12351;52.284;9.160;2023-07-29T07:46:57;20.50;1.00
24207;DHT22;12351;52.284;9.160;2023-07-29T07:49:44;20.50;1.00
24207;DHT22;12351;52.284;9.160;2023-07-29T07:52:31;20.60;1.00
24207;DHT22;12351;52.284;9.160;2023-07-29T07:55:17;20.60;1.00
24207;DHT22;12351;52.284;9.160;2023-07-29T07:58:04;20.60;1.00
24207;DHT22;12351;52.284;9.160;2023-07-29T08:00:51;20.60;1.00
24207;DHT22;12351;52.284;9.160;2023-07-29T08:03:38;20.60;1.00
24207;DHT22;12351;52.284;9.160;2023-07-29T08:06:24;20.50;1.00
24207;DHT22;12351;52.284;9.160;2023-07-29T08:09:11;20.40;38.20
24207;DHT22;12351;52.284;9.160;2023-07-29T08:11:58;20.50;21.70
24207;DHT22;12351;52.284;9.160;2023-07-29T08:14:45;20.40;1.00
24207;DHT22;12351;52.284;9.160;2023-07-29T08:17:32;20.40;16.40
24207;DHT22;12351;52.284;9.160;2023-07-29T08:20:18;20.40;21.20
24207;DHT22;12351;52.284;9.160;2023-07-29T08:23:05;20.50;53.60
24207;DHT22;12351;52.284;9.160;2023-07-29T08:25:54;20.50;90.70
24207;DHT22;12351;52.284;9.160;2023-07-29T08:28:41;20.40;56.60
24207;DHT22;12351;52.284;9.160;2023-07-29T08:31:30;20.50;99.90
24207;DHT22;12351;52.284;9.160;2023-07-29T08:34:18;20.50;99.90
24207;DHT22;12351;52.284;9.160;2023-07-29T08:37:05;20.60;99.90
24207;DHT22;12351;52.284;9.160;2023-07-29T08:39:52;20.60;99.90
24207;DHT22;12351;52.284;9.160;2023-07-29T08:42:41;20.60;99.90
24207;DHT22;12351;52.284;9.160;2023-07-29T08:45:30;20.60;99.90
24207;DHT22;12351;52.284;9.160;2023-07-29T08:48:21;20.60;99.90
24207;DHT22;12351;52.284;9.160;2023-07-29T08:51:10;20.60;99.90
24207;DHT22;12351;52.284;9.160;2023-07-29T08:53:58;20.50;99.90
24207;DHT22;12351;52.284;9.160;2023-07-29T08:56:46;20.40;99.90
24207;DHT22;12351;52.284;9.160;2023-07-29T08:59:33;20.40;99.90
24207;DHT22;12351;52.284;9.160;2023-07-29T09:02:20;20.50;99.90
24207;DHT22;12351;52.284;9.160;2023-07-29T09:05:08;20.60;99.90
24207;DHT22;12351;52.284;9.160;2023-07-29T09:07:56;20.60;99.90
24207;DHT22;12351;52.284;9.160;2023-07-29T09:10:43;20.70;99.90
24207;DHT22;12351;52.284;9.160;2023-07-29T09:13:30;20.60;99.90
24207;DHT22;12351;52.284;9.160;2023-07-29T09:16:17;20.60;99.90
24207;DHT22;12351;52.284;9.160;2023-07-29T09:19:04;20.70;99.90
24207;DHT22;12351;52.284;9.160;2023-07-29T09:21:51;20.80;99.90
24207;DHT22;12351;52.284;9.160;2023-07-29T09:24:37;20.80;99.90
24207;DHT22;12351;52.284;9.160;2023-07-29T09:27:26;20.90;99.90
24207;DHT22;12351;52.284;9.160;2023-07-29T09:30:15;20.90;99.90
24207;DHT22;12351;52.284;9.160;2023-07-29T09:33:02;21.00;99.90
24207;DHT22;12351;52.284;9.160;2023-07-29T09:35:48;21.00;99.90
24207;DHT22;12351;52.284;9.160;2023-07-29T09:38:35;20.90;99.90
24207;DHT22;12351;52.284;9.160;2023-07-29T09:41:23;21.00;99.90
24207;DHT22;12351;52.284;9.160;2023-07-29T09:44:11;20.90;99.90
24207;DHT22;12351;52.284;9.160;2023-07-29T09:46:57;21.00;99.90
24207;DHT22;12351;52.284;9.160;2023-07-29T09:49:44;21.10;99.90
24207;DHT22;12351;52.284;9.160;2023-07-29T09:52:31;21.20;99.90
24207;DHT22;12351;52.284;9.160;2023-07-29T09:55:19;21.30;99.90
24207;DHT22;12351;52.284;9.160;2023-07-29T09:58:06;21.50;99.90
24207;DHT22;12351;52.284;9.160;2023-07-29T10:00:54;21.60;99.90
24207;DHT22;12351;52.284;9.160;2023-07-29T10:03:41;21.80;99.90
24207;DHT22;12351;52.284;9.160;2023-07-29T10:06:29;21.90;99.90
24207;DHT22;12351;52.284;9.160;2023-07-29T10:09:16;21.80;1.00
24207;DHT22;12351;52.284;9.160;2023-07-29T10:12:05;21.80;99.90
24207;DHT22;12351;52.284;9.160;2023-07-29T10:14:53;21.90;1.00
24207;DHT22;12351;52.284;9.160;2023-07-29T10:17:40;22.10;90.30
24207;DHT22;12351;52.284;9.160;2023-07-29T10:20:27;22.20;99.90
24207;DHT22;12351;52.284;9.160;2023-07-29T10:23:15;22.10;1.00
24207;DHT22;12351;52.284;9.160;2023-07-29T10:26:05;22.20;22.10
24207;DHT22;12351;52.284;9.160;2023-07-29T10:28:52;22.10;99.90
24207;DHT22;12351;52.284;9.160;2023-07-29T10:31:42;22.10;99.90
24207;DHT22;12351;52.284;9.160;2023-07-29T10:34:30;22.00;99.90
24207;DHT22;12351;52.284;9.160;2023-07-29T10:37:18;22.10;1.00
24207;DHT22;12351;52.284;9.160;2023-07-29T10:40:07;22.20;99.90
24207;DHT22;12351;52.284;9.160;2023-07-29T10:45:44;22.30;99.90
24207;DHT22;12351;52.284;9.160;2023-07-29T10:54:14;22.40;99.90
24207;DHT22;12351;52.284;9.160;2023-07-29T10:57:01;22.60;99.90
24207;DHT22;12351;52.284;9.160;2023-07-29T11:02:38;22.60;99.90
24207;DHT22;12351;52.284;9.160;2023-07-29T11:05:25;22.60;99.90
24207;DHT22;12351;52.284;9.160;2023-07-29T11:11:04;22.70;99.90
24207;DHT22;12351;52.284;9.160;2023-07-29T11:13:51;22.90;99.90
24207;DHT22;12351;52.284;9.160;2023-07-29T11:16:38;23.00;99.90
24207;DHT22;12351;52.284;9.160;2023-07-29T11:19:25;23.00;99.90
24207;DHT22;12351;52.284;9.160;2023-07-29T11:22:12;23.00;99.90
24207;DHT22;12351;52.284;9.160;2023-07-29T11:24:59;23.00;99.90
24207;DHT22;12351;52.284;9.160;2023-07-29T11:27:46;23.00;99.90
24207;DHT22;12351;52.284;9.160;2023-07-29T11:30:33;23.10;99.90
24207;DHT22;12351;52.284;9.160;2023-07-29T11:33:21;23.10;99.90
24207;DHT22;12351;52.284;9.160;2023-07-29T11:38:58;22.90;99.90
24207;DHT22;12351;52.284;9.160;2023-07-29T11:41:46;23.00;99.90
24207;DHT22;12351;52.284;9.160;2023-07-29T11:44:33;23.10;99.90
24207;DHT22;12351;52.284;9.160;2023-07-29T11:47:20;23.20;99.90
24207;DHT22;12351;52.284;9.160;2023-07-29T11:50:11;23.30;99.90
24207;DHT22;12351;52.284;9.160;2023-07-29T11:52:58;23.30;99.90
24207;DHT22;12351;52.284;9.160;2023-07-29T11:55:44;23.50;99.90
24207;DHT22;12351;52.284;9.160;2023-07-29T11:58:32;23.40;99.90
24207;DHT22;12351;52.284;9.160;2023-07-29T12:01:19;23.60;99.90
24207;DHT22;12351;52.284;9.160;2023-07-29T12:04:06;23.60;99.90
24207;DHT22;12351;52.284;9.160;2023-07-29T12:06:53;23.80;99.90
24207;DHT22;12351;52.284;9.160;2023-07-29T12:09:41;23.90;99.90
24207;DHT22;12351;52.284;9.160;2023-07-29T12:12:28;23.90;99.90
24207;DHT22;12351;52.284;9.160;2023-07-29T12:18:04;23.80;99.90
24207;DHT22;12351;52.284;9.160;2023-07-29T12:20:51;24.00;99.90
24207;DHT22;12351;52.284;9.160;2023-07-29T12:23:38;24.10;99.90
24207;DHT22;12351;52.284;9.160;2023-07-29T12:26:27;24.20;99.90
24207;DHT22;12351;52.284;9.160;2023-07-29T12:29:16;24.10;99.90
24207;DHT22;12351;52.284;9.160;2023-07-29T12:32:05;24.20;99.90
24207;DHT22;12351;52.284;9.160;2023-07-29T12:34:53;24.30;99.90
24207;DHT22;12351;52.284;9.160;2023-07-29T12:37:41;24.40;99.90
24207;DHT22;12351;52.284;9.160;2023-07-29T12:40:28;24.40;99.90
24207;DHT22;12351;52.284;9.160;2023-07-29T12:43:15;24.40;99.90
24207;DHT22;12351;52.284;9.160;2023-07-29T12:46:02;24.40;99.90
24207;DHT22;12351;52.284;9.160;2023-07-29T12:48:49;24.50;99.90
24207;DHT22;12351;52.284;9.160;2023-07-29T12:51:36;24.50;99.90
24207;DHT22;12351;52.284;9.160;2023-07-29T12:54:23;24.50;99.90
24207;DHT22;12351;52.284;9.160;2023-07-29T12:57:10;24.60;99.90
24207;DHT22;12351;52.284;9.160;2023-07-29T12:59:57;24.80;99.90
24207;DHT22;12351;52.284;9.160;2023-07-29T13:02:44;24.70;99.90
24207;DHT22;12351;52.284;9.160;2023-07-29T13:05:31;24.70;99.90
24207;DHT22;12351;52.284;9.160;2023-07-29T13:08:17;24.80;99.90
24207;DHT22;12351;52.284;9.160;2023-07-29T13:11:05;24.90;99.90
24207;DHT22;12351;52.284;9.160;2023-07-29T13:13:51;24.90;99.90
24207;DHT22;12351;52.284;9.160;2023-07-29T13:16:38;24.90;99.90
24207;DHT22;12351;52.284;9.160;2023-07-29T13:19:25;24.90;99.90
24207;DHT22;12351;52.284;9.160;2023-07-29T13:22:11;24.70;99.90
24207;DHT22;12351;52.284;9.160;2023-07-29T13:24:58;24.70;99.90
24207;DHT22;12351;52.284;9.160;2023-07-29T13:27:44;24.70;99.90
24207;DHT22;12351;52.284;9.160;2023-07-29T13:30:31;24.60;99.90
24207;DHT22;12351;52.284;9.160;2023-07-29T13:33:18;24.60;99.90
24207;DHT22;12351;52.284;9.160;2023-07-29T13:36:06;24.70;99.90
24207;DHT22;12351;52.284;9.160;2023-07-29T13:38:53;24.70;99.90
24207;DHT22;12351;52.284;9.160;2023-07-29T13:41:40;24.80;99.90
24207;DHT22;12351;52.284;9.160;2023-07-29T13:44:27;25.00;99.90
24207;DHT22;12351;52.284;9.160;2023-07-29T13:47:14;25.00;99.90
24207;DHT22;12351;52.284;9.160;2023-07-29T13:50:01;24.90;99.90
24207;DHT22;12351;52.284;9.160;2023-07-29T13:52:49;24.80;99.90
24207;DHT22;12351;52.284;9.160;2023-07-29T13:55:36;24.70;99.90
24207;DHT22;12351;52.284;9.160;2023-07-29T13:58:22;24.50;99.90
24207;DHT22;12351;52.284;9.160;2023-07-29T14:01:09;24.70;99.90
24207;DHT22;12351;52.284;9.160;2023-07-29T14:03:56;24.90;99.90
24207;DHT22;12351;52.284;9.160;2023-07-29T14:06:43;24.90;99.90
24207;DHT22;12351;52.284;9.160;2023-07-29T14:09:31;25.00;99.90
24207;DHT22;12351;52.284;9.160;2023-07-29T14:12:17;25.10;99.90
24207;DHT22;12351;52.284;9.160;2023-07-29T14:15:05;25.10;99.90
24207;DHT22;12351;52.284;9.160;2023-07-29T14:17:52;25.10;99.90
24207;DHT22;12351;52.284;9.160;2023-07-29T14:20:38;25.10;99.90
24207;DHT22;12351;52.284;9.160;2023-07-29T14:23:25;25.10;99.90
24207;DHT22;12351;52.284;9.160;2023-07-29T14:26:12;25.20;99.90
24207;DHT22;12351;52.284;9.160;2023-07-29T14:28:58;25.30;99.90
24207;DHT22;12351;52.284;9.160;2023-07-29T14:31:45;25.20;99.90
24207;DHT22;12351;52.284;9.160;2023-07-29T14:34:31;25.30;99.90
24207;DHT22;12351;52.284;9.160;2023-07-29T14:37:18;25.40;99.90
24207;DHT22;12351;52.284;9.160;2023-07-29T14:40:05;25.40;99.90
24207;DHT22;12351;52.284;9.160;2023-07-29T14:42:52;25.40;99.90
24207;DHT22;12351;52.284;9.160;2023-07-29T14:45:39;25.60;99.90
24207;DHT22;12351;52.284;9.160;2023-07-29T14:48:27;25.70;99.90
24207;DHT22;12351;52.284;9.160;2023-07-29T14:51:14;25.90;99.90
24207;DHT22;12351;52.284;9.160;2023-07-29T14:54:01;26.00;99.90
24207;DHT22;12351;52.284;9.160;2023-07-29T14:56:47;26.10;99.90
24207;DHT22;12351;52.284;9.160;2023-07-29T14:59:34;26.10;99.90
24207;DHT22;12351;52.284;9.160;2023-07-29T15:02:21;26.10;99.90
24207;DHT22;12351;52.284;9.160;2023-07-29T15:05:08;26.20;99.90
24207;DHT22;12351;52.284;9.160;2023-07-29T15:07:55;26.10;99.90
24207;DHT22;12351;52.284;9.160;2023-07-29T15:10:45;26.10;99.90
24207;DHT22;12351;52.284;9.160;2023-07-29T15:13:32;26.10;99.90
24207;DHT22;12351;52.284;9.160;2023-07-29T15:16:18;26.10;99.90
24207;DHT22;12351;52.284;9.160;2023-07-29T15:19:05;26.10;99.90
24207;DHT22;12351;52.284;9.160;2023-07-29T15:21:51;26.00;99.90
24207;DHT22;12351;52.284;9.160;2023-07-29T15:24:38;26.00;99.90
24207;DHT22;12351;52.284;9.160;2023-07-29T15:27:27;26.00;99.90
24207;DHT22;12351;52.284;9.160;2023-07-29T15:30:14;25.90;99.90
24207;DHT22;12351;52.284;9.160;2023-07-29T15:33:01;25.70;99.90
24207;DHT22;12351;52.284;9.160;2023-07-29T15:35:48;25.70;99.90
24207;DHT22;12351;52.284;9.160;2023-07-29T15:38:35;25.70;99.90
24207;DHT22;12351;52.284;9.160;2023-07-29T15:41:22;25.60;99.90
24207;DHT22;12351;52.284;9.160;2023-07-29T15:44:09;25.60;99.90
24207;DHT22;12351;52.284;9.160;2023-07-29T15:46:55;25.60;99.90
24207;DHT22;12351;52.284;9.160;2023-07-29T15:49:42;25.50;99.90
24207;DHT22;12351;52.284;9.160;2023-07-29T15:52:29;25.50;99.90
24207;DHT22;12351;52.284;9.160;2023-07-29T15:55:16;25.50;99.90
24207;DHT22;12351;52.284;9.160;2023-07-29T15:58:03;25.50;99.90
24207;DHT22;12351;52.284;9.160;2023-07-29T16:00:50;25.50;99.90
24207;DHT22;12351;52.284;9.160;2023-07-29T16:03:37;25.40;99.90
24207;DHT22;12351;52.284;9.160;2023-07-29T16:06:26;25.50;99.90
24207;DHT22;12351;52.284;9.160;2023-07-29T16:09:12;25.50;99.90
24207;DHT22;12351;52.284;9.160;2023-07-29T16:11:59;25.40;99.90
24207;DHT22;12351;52.284;9.160;2023-07-29T16:14:48;25.20;99.90
24207;DHT22;12351;52.284;9.160;2023-07-29T16:17:37;25.00;99.90
24207;DHT22;12351;52.284;9.160;2023-07-29T16:20:24;24.80;99.90
24207;DHT22;12351;52.284;9.160;2023-07-29T16:23:10;24.90;99.90
24207;DHT22;12351;52.284;9.160;2023-07-29T16:25:59;24.80;99.90
24207;DHT22;12351;52.284;9.160;2023-07-29T16:28:45;24.80;99.90
24207;DHT22;12351;52.284;9.160;2023-07-29T16:31:33;24.70;99.90
24207;DHT22;12351;52.284;9.160;2023-07-29T16:34:20;24.70;99.90
24207;DHT22;12351;52.284;9.160;2023-07-29T16:37:07;24.90;99.90
24207;DHT22;12351;52.284;9.160;2023-07-29T16:39:54;24.90;99.90
24207;DHT22;12351;52.284;9.160;2023-07-29T16:42:40;25.00;99.90
24207;DHT22;12351;52.284;9.160;2023-07-29T16:45:28;25.00;99.90
24207;DHT22;12351;52.284;9.160;2023-07-29T16:48:16;25.10;99.90
24207;DHT22;12351;52.284;9.160;2023-07-29T16:51:03;25.10;99.90
24207;DHT22;12351;52.284;9.160;2023-07-29T16:53:50;24.90;99.90
24207;DHT22;12351;52.284;9.160;2023-07-29T16:56:39;25.00;99.90
24207;DHT22;12351;52.284;9.160;2023-07-29T16:59:26;25.10;99.90
24207;DHT22;12351;52.284;9.160;2023-07-29T17:02:12;24.90;99.90
24207;DHT22;12351;52.284;9.160;2023-07-29T17:04:59;24.90;99.90
24207;DHT22;12351;52.284;9.160;2023-07-29T17:07:48;24.90;94.90
24207;DHT22;12351;52.284;9.160;2023-07-29T17:10:35;24.90;99.90
24207;DHT22;12351;52.284;9.160;2023-07-29T17:13:24;25.10;99.90
24207;DHT22;12351;52.284;9.160;2023-07-29T17:16:15;25.20;99.90
24207;DHT22;12351;52.284;9.160;2023-07-29T17:19:05;25.20;30.70
24207;DHT22;12351;52.284;9.160;2023-07-29T17:21:56;25.20;1.00
24207;DHT22;12351;52.284;9.160;2023-07-29T17:24:46;25.20;99.90
24207;DHT22;12351;52.284;9.160;2023-07-29T17:27:36;25.20;1.00
24207;DHT22;12351;52.284;9.160;2023-07-29T17:30:28;25.20;99.90
24207;DHT22;12351;52.284;9.160;2023-07-29T17:33:15;25.20;99.90
24207;DHT22;12351;52.284;9.160;2023-07-29T17:36:09;25.30;99.90
24207;DHT22;12351;52.284;9.160;2023-07-29T17:38:57;25.30;99.90
24207;DHT22;12351;52.284;9.160;2023-07-29T17:41:47;25.20;99.90
24207;DHT22;12351;52.284;9.160;2023-07-29T17:44:36;25.20;99.90
24207;DHT22;12351;52.284;9.160;2023-07-29T17:47:26;25.20;99.90
24207;DHT22;12351;52.284;9.160;2023-07-29T17:50:18;25.20;99.90
24207;DHT22;12351;52.284;9.160;2023-07-29T17:53:05;25.20;99.90
24207;DHT22;12351;52.284;9.160;2023-07-29T17:55:56;25.20;99.90
24207;DHT22;12351;52.284;9.160;2023-07-29T17:58:45;25.20;99.90
24207;DHT22;12351;52.284;9.160;2023-07-29T18:01:35;25.20;99.90
24207;DHT22;12351;52.284;9.160;2023-07-29T18:04:26;25.10;99.90
24207;DHT22;12351;52.284;9.160;2023-07-29T18:07:15;25.10;99.90
24207;DHT22;12351;52.284;9.160;2023-07-29T18:10:06;25.00;99.90
24207;DHT22;12351;52.284;9.160;2023-07-29T18:12:56;25.00;99.90
24207;DHT22;12351;52.284;9.160;2023-07-29T18:15:49;24.90;99.90
24207;DHT22;12351;52.284;9.160;2023-07-29T18:18:36;24.80;99.90
24207;DHT22;12351;52.284;9.160;2023-07-29T18:21:29;24.80;99.90